createdAt,value
2022-10-05T00:01:37.503Z,8.20
2022-10-05T00:06:45.581Z,8.30
2022-10-05T00:11:51.981Z,8.30
2022-10-05T00:16:57.842Z,8.40
2022-10-05T00:22:06.465Z,8.40
2022-10-05T00:27:36.357Z,8.40
2022-10-05T00:32:42.338Z,8.40
2022-10-05T00:37:50.605Z,8.50
2022-10-05T00:43:04.710Z,8.40
2022-10-05T00:48:27.891Z,8.40
2022-10-05T00:53:43.062Z,8.40
2022-10-05T00:59:02.663Z,8.40
2022-10-05T01:04:40.353Z,8.30
2022-10-05T01:10:12.705Z,8.20
2022-10-05T01:15:35.733Z,8.20
2022-10-05T01:20:52.754Z,8.30
2022-10-05T01:26:01.558Z,8.30
2022-10-05T01:31:24.379Z,8.30
2022-10-05T01:36:44.703Z,8.30
2022-10-05T01:42:07.990Z,8.30
2022-10-05T01:47:19.063Z,8.30
2022-10-05T01:52:30.021Z,8.30
2022-10-05T01:57:40.565Z,8.30
2022-10-05T02:02:51.518Z,8.30
2022-10-05T02:08:05.280Z,8.40
2022-10-05T02:13:16.231Z,8.60
2022-10-05T02:18:24.464Z,8.70
2022-10-05T02:23:32.708Z,8.80
2022-10-05T02:28:47.206Z,8.90
2022-10-05T02:33:52.410Z,8.90
2022-10-05T02:39:24.243Z,8.90
2022-10-05T02:44:47.492Z,8.90
2022-10-05T02:50:25.422Z,8.80
2022-10-05T02:55:39.254Z,8.70
2022-10-05T03:01:03.497Z,8.80
2022-10-05T03:06:15.555Z,8.80
2022-10-05T03:11:26.695Z,8.80
2022-10-05T03:16:37.677Z,8.80
2022-10-05T03:22:07.244Z,8.70
2022-10-05T03:27:18.825Z,8.60
2022-10-05T03:32:29.612Z,8.50
2022-10-05T03:37:37.771Z,8.50
2022-10-05T03:43:00.539Z,8.50
2022-10-05T03:48:11.522Z,8.50
2022-10-05T03:53:19.725Z,8.60
2022-10-05T03:58:39.827Z,8.80
2022-10-05T04:03:53.497Z,8.90
2022-10-05T04:09:01.669Z,9.00
2022-10-05T04:14:09.872Z,9.10
2022-10-05T04:19:25.090Z,9.20
2022-10-05T04:24:54.330Z,9.20
2022-10-05T04:30:02.473Z,9.20
2022-10-05T04:35:19.571Z,9.20
2022-10-05T04:40:45.988Z,9.20
2022-10-05T04:45:56.701Z,9.20
2022-10-05T04:51:13.614Z,9.30
2022-10-05T04:56:21.461Z,9.30
2022-10-05T05:01:50.565Z,9.30
2022-10-05T05:07:16.830Z,9.30
2022-10-05T05:12:41.273Z,9.40
2022-10-05T05:18:04.419Z,9.40
2022-10-05T05:23:30.283Z,9.30
2022-10-05T05:28:53.389Z,9.30
2022-10-05T05:34:27.116Z,9.40
2022-10-05T05:39:38.968Z,9.40
2022-10-05T05:44:47.275Z,9.40
2022-10-05T05:50:20.946Z,9.40
2022-10-05T05:55:30.485Z,9.40
2022-10-05T06:00:41.637Z,9.50
2022-10-05T06:05:52.589Z,9.70
2022-10-05T06:11:04.953Z,10.00
2022-10-05T06:16:17.701Z,10.20
2022-10-05T06:21:28.752Z,10.50
2022-10-05T06:27:11.501Z,10.80
2022-10-05T06:32:31.682Z,11.00
2022-10-05T06:37:46.203Z,11.30
2022-10-05T06:43:21.141Z,11.60
2022-10-05T06:48:56.279Z,11.80
2022-10-05T06:54:07.247Z,12.00
2022-10-05T06:59:18.510Z,11.90
2022-10-05T07:04:38.909Z,12.10
2022-10-05T07:10:12.628Z,12.40
2022-10-05T07:15:33.153Z,12.90
2022-10-05T07:20:56.105Z,13.30
2022-10-05T07:26:16.379Z,13.30
2022-10-05T07:31:24.593Z,13.20
2022-10-05T07:37:02.355Z,13.10
2022-10-05T07:42:13.425Z,13.20
2022-10-05T07:47:39.882Z,13.40
2022-10-05T07:52:48.500Z,13.50
2022-10-05T07:58:22.262Z,13.70
2022-10-05T08:03:33.112Z,14.00
2022-10-05T08:08:50.358Z,14.10
2022-10-05T08:14:07.496Z,14.40
2022-10-05T08:19:36.692Z,14.60
2022-10-05T08:25:02.891Z,14.70
2022-10-05T08:30:12.019Z,14.80
2022-10-05T08:35:34.416Z,14.70
2022-10-05T08:40:51.833Z,14.80
2022-10-05T08:46:34.586Z,14.90
2022-10-05T08:52:00.881Z,15.00
2022-10-05T08:57:25.646Z,15.00
2022-10-05T09:02:53.593Z,15.20
2022-10-05T09:08:25.744Z,15.20
2022-10-05T09:13:56.441Z,15.30
2022-10-05T09:19:36.062Z,15.30
2022-10-05T09:25:11.233Z,15.10
2022-10-05T09:30:40.301Z,15.00
2022-10-05T09:35:54.020Z,15.10
2022-10-05T09:41:18.498Z,15.10
2022-10-05T09:46:44.677Z,15.20
2022-10-05T09:52:27.332Z,15.40
2022-10-05T09:57:56.374Z,15.60
2022-10-05T10:03:13.520Z,15.90
2022-10-05T10:08:48.019Z,16.00
2022-10-05T10:14:07.335Z,16.00
2022-10-05T10:19:33.131Z,15.90
2022-10-05T10:24:50.207Z,15.90
2022-10-05T10:30:01.206Z,16.10
2022-10-05T10:35:19.417Z,16.30
2022-10-05T10:41:02.189Z,16.40
2022-10-05T10:46:20.728Z,16.40
2022-10-05T10:51:39.682Z,16.40
2022-10-05T10:57:04.547Z,16.50
2022-10-05T11:02:27.884Z,16.70
2022-10-05T11:08:01.831Z,16.90
2022-10-05T11:13:51.676Z,16.90
2022-10-05T11:19:08.744Z,16.80
2022-10-05T11:24:39.028Z,16.90
2022-10-05T11:30:12.395Z,16.90
2022-10-05T11:35:26.435Z,17.00
2022-10-05T11:40:53.984Z,17.00
2022-10-05T11:46:10.872Z,17.00
2022-10-05T11:51:34.422Z,17.10
2022-10-05T11:56:50.880Z,17.10
2022-10-05T12:02:10.411Z,17.20
2022-10-05T12:07:30.508Z,17.20
2022-10-05T12:12:38.690Z,17.20
2022-10-05T12:17:51.207Z,17.10
2022-10-05T12:23:22.084Z,17.10
2022-10-05T12:28:46.887Z,17.00
2022-10-05T12:34:14.396Z,16.80
2022-10-05T12:39:42.221Z,16.80
2022-10-05T12:45:05.228Z,16.80
2022-10-05T12:50:21.824Z,16.80
2022-10-05T12:55:32.698Z,16.80
2022-10-05T13:00:41.067Z,16.80
2022-10-05T13:05:52.010Z,16.80
2022-10-05T13:11:05.585Z,16.80
2022-10-05T13:16:19.411Z,16.80
2022-10-05T13:21:49.692Z,16.80
2022-10-05T13:27:04.378Z,16.80
2022-10-05T13:32:18.632Z,16.80
2022-10-05T13:37:53.593Z,16.80
2022-10-05T13:43:04.528Z,16.80
2022-10-05T13:48:30.782Z,16.70
2022-10-05T13:53:47.767Z,16.70
2022-10-05T13:59:01.568Z,16.60
2022-10-05T14:04:24.941Z,16.70
2022-10-05T14:09:35.158Z,16.60
2022-10-05T14:14:57.925Z,16.60
2022-10-05T14:20:06.232Z,16.50
2022-10-05T14:25:16.318Z,16.50
2022-10-05T14:30:24.631Z,16.40
2022-10-05T14:35:49.312Z,16.50
2022-10-05T14:41:25.534Z,16.40
2022-10-05T14:46:34.071Z,16.40
2022-10-05T14:51:39.440Z,16.40
2022-10-05T14:57:09.711Z,16.30
2022-10-05T15:02:35.746Z,16.30
2022-10-05T15:07:48.292Z,16.20
2022-10-05T15:12:55.245Z,16.20
2022-10-05T15:18:06.100Z,16.20
2022-10-05T15:23:24.953Z,16.00
2022-10-05T15:28:48.558Z,16.00
2022-10-05T15:34:08.478Z,15.90
2022-10-05T15:39:50.150Z,15.80
2022-10-05T15:45:14.608Z,15.60
2022-10-05T15:50:23.009Z,15.60
2022-10-05T15:55:39.900Z,15.40
2022-10-05T16:00:48.162Z,15.30
2022-10-05T16:06:22.924Z,15.20
2022-10-05T16:11:37.303Z,15.00
2022-10-05T16:17:00.593Z,14.90
2022-10-05T16:22:21.803Z,14.70
2022-10-05T16:27:44.764Z,14.50
2022-10-05T16:33:04.819Z,14.40
2022-10-05T16:38:15.448Z,14.30
2022-10-05T16:43:41.648Z,14.20
2022-10-05T16:49:01.770Z,14.10
2022-10-05T16:54:24.508Z,13.90
2022-10-05T17:00:13.425Z,13.70
2022-10-05T17:05:44.333Z,13.50
2022-10-05T17:16:29.901Z,13.00
2022-10-05T17:21:53.754Z,12.80
2022-10-05T17:27:18.366Z,12.70
2022-10-05T17:32:35.750Z,12.60
2022-10-05T17:37:47.327Z,12.60
2022-10-05T17:43:11.952Z,12.50
2022-10-05T17:48:36.409Z,12.50
2022-10-05T17:54:05.057Z,12.40
2022-10-05T17:59:11.899Z,12.30
2022-10-05T18:04:20.299Z,12.20
2022-10-05T18:09:28.441Z,12.10
2022-10-05T18:15:04.324Z,12.10
2022-10-05T18:20:35.214Z,11.90
2022-10-05T18:25:56.009Z,12.10
2022-10-05T18:31:19.041Z,12.20
2022-10-05T18:36:43.229Z,12.20
2022-10-05T18:42:18.400Z,12.20
2022-10-05T18:47:37.795Z,12.10
2022-10-05T18:53:00.347Z,12.00
2022-10-05T18:58:23.970Z,11.90
2022-10-05T19:04:06.066Z,11.80
2022-10-05T19:09:17.095Z,11.70
2022-10-05T19:14:34.323Z,11.50
2022-10-05T19:19:59.981Z,11.40
2022-10-05T19:25:40.411Z,11.30
2022-10-05T19:31:04.137Z,11.20
2022-10-05T19:36:32.231Z,11.30
2022-10-05T19:41:50.782Z,11.40
2022-10-05T19:47:04.357Z,11.60
2022-10-05T19:52:15.160Z,11.70
2022-10-05T19:57:21.673Z,11.80
2022-10-05T20:02:28.886Z,11.90
2022-10-05T20:07:34.791Z,12.00
2022-10-05T20:12:55.565Z,11.90
2022-10-05T20:18:21.683Z,12.00
2022-10-05T20:23:30.549Z,11.90
2022-10-05T20:28:35.771Z,11.90
2022-10-05T20:33:41.226Z,11.90
2022-10-05T20:38:46.296Z,11.80
2022-10-05T20:43:51.601Z,11.70
2022-10-05T20:48:56.826Z,11.60
2022-10-05T20:54:02.060Z,11.60
2022-10-05T20:59:07.229Z,11.50
2022-10-05T21:04:12.475Z,11.50
2022-10-05T21:09:20.453Z,11.30
2022-10-05T21:14:27.690Z,11.30
2022-10-05T21:19:34.569Z,11.30
2022-10-05T21:24:41.224Z,11.30
2022-10-05T21:29:48.080Z,11.30
2022-10-05T21:34:53.195Z,11.30
2022-10-05T21:39:59.453Z,11.20
2022-10-05T21:45:04.784Z,11.10
2022-10-05T21:50:10.554Z,11.00
2022-10-05T21:55:15.950Z,11.10
2022-10-05T22:00:21.240Z,11.00
2022-10-05T22:05:27.239Z,11.00
2022-10-05T22:10:33.487Z,11.00
2022-10-05T22:15:40.404Z,10.90
2022-10-05T22:20:46.610Z,10.90
2022-10-05T22:25:51.847Z,10.80
2022-10-05T22:30:56.998Z,10.80
2022-10-05T22:36:02.423Z,10.80
2022-10-05T22:41:10.973Z,10.80
2022-10-05T22:46:16.897Z,10.80
2022-10-05T22:51:22.266Z,10.80
2022-10-05T22:56:27.644Z,10.90
2022-10-05T23:01:32.984Z,10.90
2022-10-05T23:06:38.384Z,11.00
2022-10-05T23:11:43.665Z,11.00
2022-10-05T23:16:49.100Z,11.10
2022-10-05T23:21:54.497Z,11.10
2022-10-05T23:26:59.670Z,11.10
2022-10-05T23:32:05.324Z,11.10
2022-10-05T23:37:10.654Z,11.10
2022-10-05T23:42:17.267Z,11.10
2022-10-05T23:47:22.527Z,11.10
2022-10-05T23:52:27.873Z,11.00
2022-10-05T23:57:33.131Z,10.90
